Time;durP1;ratioP1;P1;durP2;ratioP2;P2;SDS_P1;SDS_P2;PMS_P1;PMS_P2;Temp;Humidity;BMP_temperature;BMP_pressure;BME280_temperature;BME280_humidity;BME280_pressure;Samples;Min_cycle;Max_cycle;Signal;HPM_P1;HPM_P2
2022/07/10 00:01:39;;;;;;;;;;;;;;;;;;5032212;28;19976;-57
2022/07/10 00:04:06;;;;;;;;;;;;;;;;;;5032237;28;19975;-59
2022/07/10 00:06:32;;;;;;;;;;;;;;;;;;5031994;28;19929;-59
2022/07/10 00:09:02;;;;;;;;;;;;;;;;;;5067198;22;19926;-78
2022/07/10 00:11:28;;;;;;;;;;;;;;;;;;5034093;28;20353;-78
2022/07/10 00:13:55;;;;;;;;;;;;;;;;;;5032211;28;19968;-78
2022/07/10 00:16:21;;;;;;;;;;;;;;;;;;5031641;28;20461;-77
2022/07/10 00:18:48;;;;;;;;;;;;;;;;;;5033340;28;19925;-79
2022/07/10 00:21:14;;;;;;;;;;;;;;;;;;5035764;28;19968;-76
2022/07/10 00:23:41;;;;;;;;;;;;;;;;;;5036044;28;20016;-78
2022/07/10 00:26:09;;;;;;;;;;;;;;;;;;5035649;28;20019;-76
2022/07/10 00:28:36;;;;;;;;;;;;;;;;;;5035750;28;19929;-76
2022/07/10 00:31:03;;;;;;;;;;;;;;;;;;5035955;28;19972;-78
2022/07/10 00:33:30;;;;;;;;;;;;;;;;;;5035888;28;19979;-77
2022/07/10 00:35:57;;;;;;;;;;;;;;;;;;5035608;28;20409;-78
2022/07/10 00:38:23;;;;;;;;;;;;;;;;;;5035555;28;19929;-78
2022/07/10 00:40:50;;;;;;;;;;;;;;;;;;5035530;28;19960;-77
2022/07/10 00:43:18;;;;;;;;;;;;;;;;;;5035182;28;20391;-77
2022/07/10 00:45:44;;;;;;;;;;;;;;;;;;5035759;28;20021;-75
2022/07/10 00:48:11;;;;;;;;;;;;;;;;;;5034889;28;20021;-76
2022/07/10 00:50:37;;;;;;;;;;;;;;;;;;5035768;28;19925;-76
2022/07/10 00:53:03;;;;;;;;;;;;;;;;;;5035630;28;20024;-77
2022/07/10 00:55:31;;;;;;;;;;;;;;;;;;5035014;28;19925;-79
2022/07/10 00:57:57;;;;;;;;;;;;;;;;;;5034922;28;19969;-76
2022/07/10 01:00:26;;;;;;;;;;;;;;;;;;5034811;28;19933;-78
2022/07/10 01:02:53;;;;;;;;;;;;;;;;;;5035084;28;19995;-77
2022/07/10 01:05:19;;;;;;;;;;;;;;;;;;5035122;28;20011;-77
2022/07/10 01:07:46;;;;;;;;;;;;;;;;;;5034993;28;20020;-77
2022/07/10 01:10:12;;;;;;;;;;;;;;;;;;5034656;28;19964;-77
2022/07/10 01:12:38;;;;;;;;;;;;;;;;;;5035129;28;20023;-77
2022/07/10 01:15:06;;;;;;;;;;;;;;;;;;5034641;28;20015;-77
2022/07/10 01:17:34;;;;;;;;;;;;;;;;;;5034361;28;19965;-77
2022/07/10 01:20:05;;;;;;;;;;;;;;;;;;5034435;28;19975;-78
2022/07/10 01:22:32;;;;;;;;;;;;;;;;;;5034653;28;20446;-77
2022/07/10 01:24:59;;;;;;;;;;;;;;;;;;5034759;28;19925;-77
2022/07/10 01:27:25;;;;;;;;;;;;;;;;;;5034679;28;19968;-77
2022/07/10 01:29:54;;;;;;;;;;;;;;;;;;5033534;28;19932;-77
2022/07/10 01:32:20;;;;;;;;;;;;;;;;;;5034239;28;19976;-76
2022/07/10 01:34:47;;;;;;;;;;;;;;;;;;5034269;28;20424;-77
2022/07/10 01:37:13;;;;;;;;;;;;;;;;;;5034040;28;20387;-76
2022/07/10 01:39:41;;;;;;;;;;;;;;;;;;5034272;28;20012;-77
2022/07/10 01:42:08;;;;;;;;;;;;;;;;;;5034288;28;19926;-78
2022/07/10 01:44:34;;;;;;;;;;;;;;;;;;5034595;28;19925;-77
2022/07/10 01:47:01;;;;;;;;;;;;;;;;;;5034158;28;19929;-76
2022/07/10 01:49:27;;;;;;;;;;;;;;;;;;5034056;28;20012;-77
2022/07/10 01:51:53;;;;;;;;;;;;;;;;;;5040398;28;20012;-76
2022/07/10 01:54:20;;;;;;;;;;;;;;;;;;5048372;28;19925;-75
2022/07/10 01:56:48;;;;;;;;;;;;;;;;;;5045044;28;19980;-76
2022/07/10 01:59:14;;;;;;;;;;;;;;;;;;5035373;28;20427;-77
2022/07/10 02:01:40;;;;;;;;;;;;;;;;;;5035301;28;19925;-76
2022/07/10 02:07:02;;;;;;;;;;;;;;;;;;4992567;28;19926;-78
2022/07/10 02:09:29;;;;;;;;;;;;;;;;;;5024609;28;20003;-76
2022/07/10 02:11:57;;;;;;;;;;;;;;;;;;5035222;28;20380;-76
2022/07/10 02:14:23;;;;;;;;;;;;;;;;;;5035868;28;19968;-77
2022/07/10 02:16:50;;;;;;;;;;;;;;;;;;5034889;28;20410;-77
2022/07/10 02:19:16;;;;;;;;;;;;;;;;;;5034519;28;20450;-78
2022/07/10 02:21:43;;;;;;;;;;;;;;;;;;5034765;28;20352;-77
2022/07/10 02:24:09;;;;;;;;;;;;;;;;;;5033581;28;20350;-77
2022/07/10 02:26:39;;;;;;;;;;;;;;;;;;5033466;28;20024;-77
2022/07/10 02:29:06;;;;;;;;;;;;;;;;;;5033274;28;20310;-78
2022/07/10 02:31:34;;;;;;;;;;;;;;;;;;5033427;28;19979;-77
2022/07/10 02:34:00;;;;;;;;;;;;;;;;;;5033456;28;19932;-76
2022/07/10 02:36:27;;;;;;;;;;;;;;;;;;5032843;28;20017;-77
2022/07/10 02:38:54;;;;;;;;;;;;;;;;;;5033026;28;19929;-77
2022/07/10 02:41:20;;;;;;;;;;;;;;;;;;5033171;28;20468;-77
2022/07/10 02:43:46;;;;;;;;;;;;;;;;;;5032948;28;20383;-77
2022/07/10 02:46:14;;;;;;;;;;;;;;;;;;5032864;28;20361;-75
2022/07/10 02:48:41;;;;;;;;;;;;;;;;;;5032952;28;19979;-77
2022/07/10 02:51:07;;;;;;;;;;;;;;;;;;5032963;28;20575;-77
2022/07/10 02:53:34;;;;;;;;;;;;;;;;;;5033364;28;19925;-79
2022/07/10 02:56:00;;;;;;;;;;;;;;;;;;5033236;28;19926;-78
2022/07/10 02:58:27;;;;;;;;;;;;;;;;;;5032818;28;20028;-79
2022/07/10 03:00:53;;;;;;;;;;;;;;;;;;5032948;28;19969;-76
2022/07/10 03:03:22;;;;;;;;;;;;;;;;;;5033087;28;20024;-78
2022/07/10 03:05:48;;;;;;;;;;;;;;;;;;5032753;28;19932;-78
2022/07/10 03:08:15;;;;;;;;;;;;;;;;;;5032450;28;19941;-78
2022/07/10 03:10:41;;;;;;;;;;;;;;;;;;5033360;28;19925;-78
2022/07/10 03:13:08;;;;;;;;;;;;;;;;;;5033079;28;20016;-78
2022/07/10 03:15:34;;;;;;;;;;;;;;;;;;5048425;28;19913;-78
2022/07/10 03:18:01;;;;;;;;;;;;;;;;;;5054577;28;19917;-79
2022/07/10 03:20:29;;;;;;;;;;;;;;;;;;5054060;28;19983;-76
2022/07/10 03:22:55;;;;;;;;;;;;;;;;;;5035376;28;19925;-76
2022/07/10 03:25:22;;;;;;;;;;;;;;;;;;5033301;28;20016;-76
2022/07/10 03:27:48;;;;;;;;;;;;;;;;;;5032835;28;19979;-77
2022/07/10 03:30:15;;;;;;;;;;;;;;;;;;5033015;28;19980;-76
2022/07/10 03:32:41;;;;;;;;;;;;;;;;;;5033179;28;19932;-78
2022/07/10 03:35:08;;;;;;;;;;;;;;;;;;5032380;28;19983;-78
2022/07/10 03:37:36;;;;;;;;;;;;;;;;;;5032876;28;19924;-76
2022/07/10 03:40:05;;;;;;;;;;;;;;;;;;5035618;28;19925;-79
2022/07/10 03:42:32;;;;;;;;;;;;;;;;;;5035894;28;19925;-79
2022/07/10 03:44:58;;;;;;;;;;;;;;;;;;5034202;28;20424;-77
2022/07/10 03:47:25;;;;;;;;;;;;;;;;;;5033151;28;20376;-79
2022/07/10 03:49:51;;;;;;;;;;;;;;;;;;5033919;28;19987;-78
2022/07/10 03:52:18;;;;;;;;;;;;;;;;;;5033892;28;19929;-77
2022/07/10 03:54:46;;;;;;;;;;;;;;;;;;5037172;28;19968;-78
2022/07/10 03:59:56;;;;;;;;;;;;;;;;;;5038110;28;19994;-79
2022/07/10 04:02:23;;;;;;;;;;;;;;;;;;5037556;28;20011;-79
2022/07/10 04:04:49;;;;;;;;;;;;;;;;;;5037788;28;20012;-77
2022/07/10 04:07:16;;;;;;;;;;;;;;;;;;5037952;28;19925;-78
2022/07/10 04:09:42;;;;;;;;;;;;;;;;;;5037186;28;20016;-79
2022/07/10 04:12:11;;;;;;;;;;;;;;;;;;5036875;28;19925;-79
2022/07/10 04:14:37;;;;;;;;;;;;;;;;;;5036696;28;19925;-78
2022/07/10 04:17:04;;;;;;;;;;;;;;;;;;5036024;28;19965;-79
2022/07/10 04:19:30;;;;;;;;;;;;;;;;;;5035908;28;20503;-77
2022/07/10 04:21:57;;;;;;;;;;;;;;;;;;5038411;28;19973;-79
2022/07/10 04:24:23;;;;;;;;;;;;;;;;;;5037442;28;19968;-79
2022/07/10 04:26:50;;;;;;;;;;;;;;;;;;5036355;28;19981;-78
2022/07/10 04:29:18;;;;;;;;;;;;;;;;;;5036300;28;19925;-77
2022/07/10 04:31:44;;;;;;;;;;;;;;;;;;5036332;28;19925;-79
2022/07/10 04:34:11;;;;;;;;;;;;;;;;;;5036791;28;19969;-77
2022/07/10 04:36:37;;;;;;;;;;;;;;;;;;5037009;28;19932;-78
2022/07/10 04:39:04;;;;;;;;;;;;;;;;;;5036255;28;20005;-78
2022/07/10 04:41:30;;;;;;;;;;;;;;;;;;5035813;28;19932;-78
2022/07/10 04:43:56;;;;;;;;;;;;;;;;;;5036334;28;19983;-77
2022/07/10 04:46:24;;;;;;;;;;;;;;;;;;5036351;28;19935;-79
2022/07/10 04:48:51;;;;;;;;;;;;;;;;;;5036327;28;20343;-78
2022/07/10 04:51:18;;;;;;;;;;;;;;;;;;5035638;28;19925;-76
2022/07/10 04:53:44;;;;;;;;;;;;;;;;;;5036105;28;20015;-78
2022/07/10 04:56:11;;;;;;;;;;;;;;;;;;5035362;28;20377;-78
2022/07/10 04:58:37;;;;;;;;;;;;;;;;;;5035468;28;20015;-76
2022/07/10 05:01:04;;;;;;;;;;;;;;;;;;5035393;28;20373;-76
2022/07/10 05:03:32;;;;;;;;;;;;;;;;;;5035477;28;20396;-77
2022/07/10 05:05:58;;;;;;;;;;;;;;;;;;5034684;28;19971;-77
2022/07/10 05:08:25;;;;;;;;;;;;;;;;;;5035052;28;20457;-77
2022/07/10 05:10:51;;;;;;;;;;;;;;;;;;5034976;28;19955;-78
2022/07/10 05:13:18;;;;;;;;;;;;;;;;;;5035418;28;19960;-77
2022/07/10 05:15:46;;;;;;;;;;;;;;;;;;5035450;28;19968;-78
2022/07/10 05:18:12;;;;;;;;;;;;;;;;;;5034992;28;19969;-78
2022/07/10 05:20:43;;;;;;;;;;;;;;;;;;5035318;28;20012;-77
2022/07/10 05:23:09;;;;;;;;;;;;;;;;;;5035793;28;20428;-76
2022/07/10 05:25:37;;;;;;;;;;;;;;;;;;5039076;28;19964;-78
2022/07/10 05:28:03;;;;;;;;;;;;;;;;;;5043426;28;19964;-76
2022/07/10 05:30:30;;;;;;;;;;;;;;;;;;5046878;28;19993;-78
2022/07/10 05:32:56;;;;;;;;;;;;;;;;;;5042665;28;20442;-78
2022/07/10 05:35:23;;;;;;;;;;;;;;;;;;5035143;28;20036;-77
2022/07/10 05:37:51;;;;;;;;;;;;;;;;;;5034156;28;20479;-78
2022/07/10 05:40:18;;;;;;;;;;;;;;;;;;5034543;28;19931;-78
2022/07/10 05:42:44;;;;;;;;;;;;;;;;;;5034788;28;19929;-78
2022/07/10 05:45:11;;;;;;;;;;;;;;;;;;5034369;28;19925;-78
2022/07/10 05:47:38;;;;;;;;;;;;;;;;;;5034058;28;19925;-77
2022/07/10 05:50:05;;;;;;;;;;;;;;;;;;5034263;28;19992;-77
2022/07/10 05:52:32;;;;;;;;;;;;;;;;;;5034765;28;19929;-78
2022/07/10 05:54:59;;;;;;;;;;;;;;;;;;5034937;28;19925;-78
2022/07/10 05:57:26;;;;;;;;;;;;;;;;;;5033653;28;19931;-77
2022/07/10 05:59:52;;;;;;;;;;;;;;;;;;5034032;28;20012;-79
2022/07/10 06:02:19;;;;;;;;;;;;;;;;;;5034145;28;20020;-79
2022/07/10 06:04:46;;;;;;;;;;;;;;;;;;5034182;28;19925;-77
2022/07/10 06:07:13;;;;;;;;;;;;;;;;;;5034175;28;19926;-79
2022/07/10 06:09:39;;;;;;;;;;;;;;;;;;5033807;28;20016;-79
2022/07/10 06:12:07;;;;;;;;;;;;;;;;;;5033950;28;19972;-78
2022/07/10 06:14:34;;;;;;;;;;;;;;;;;;5034430;28;19997;-76
2022/07/10 06:17:00;;;;;;;;;;;;;;;;;;5053462;28;19936;-78
2022/07/10 06:19:27;;;;;;;;;;;;;;;;;;5057505;28;19932;-78
2022/07/10 06:24:34;;;;;;;;;;;;;;;;;;5038671;28;19925;-79
2022/07/10 06:27:00;;;;;;;;;;;;;;;;;;5042749;28;20422;-78
2022/07/10 06:29:28;;;;;;;;;;;;;;;;;;5036665;28;20416;-78
2022/07/10 06:31:54;;;;;;;;;;;;;;;;;;5034557;28;20012;-78
2022/07/10 06:34:21;;;;;;;;;;;;;;;;;;5035225;28;20016;-78
2022/07/10 06:36:47;;;;;;;;;;;;;;;;;;5034431;28;19932;-79
2022/07/10 06:39:14;;;;;;;;;;;;;;;;;;5034852;28;19951;-77
2022/07/10 06:41:40;;;;;;;;;;;;;;;;;;5034137;28;20115;-78
2022/07/10 06:44:07;;;;;;;;;;;;;;;;;;5033783;28;19964;-77
2022/07/10 06:46:35;;;;;;;;;;;;;;;;;;5033271;28;20022;-77
2022/07/10 06:49:01;;;;;;;;;;;;;;;;;;5033184;28;19979;-77
2022/07/10 06:51:27;;;;;;;;;;;;;;;;;;5033294;28;19925;-76
2022/07/10 06:53:54;;;;;;;;;;;;;;;;;;5050632;22;19992;-77
2022/07/10 06:56:20;;;;;;;;;;;;;;;;;;5045816;28;19925;-78
2022/07/10 06:58:47;;;;;;;;;;;;;;;;;;5046756;28;19960;-76
2022/07/10 07:01:13;;;;;;;;;;;;;;;;;;5064414;28;19932;-77
2022/07/10 07:03:41;;;;;;;;;;;;;;;;;;5065053;28;19936;-78
2022/07/10 07:06:07;;;;;;;;;;;;;;;;;;5065497;28;20040;-77
2022/07/10 07:08:36;;;;;;;;;;;;;;;;;;5064661;28;20012;-77
2022/07/10 07:11:02;;;;;;;;;;;;;;;;;;5065463;28;19924;-76
2022/07/10 07:13:29;;;;;;;;;;;;;;;;;;5066047;28;19932;-76
2022/07/10 07:15:59;;;;;;;;;;;;;;;;;;5064919;28;19932;-76
2022/07/10 07:18:31;;;;;;;;;;;;;;;;;;5065163;28;19928;-77
2022/07/10 07:23:58;;;;;;;;;;;;;;;;;;5025510;28;19941;-77
2022/07/10 07:26:25;;;;;;;;;;;;;;;;;;5024497;28;19934;-78
2022/07/10 07:28:51;;;;;;;;;;;;;;;;;;5039838;28;19924;-77
2022/07/10 07:31:18;;;;;;;;;;;;;;;;;;5063390;28;19925;-77
2022/07/10 07:33:45;;;;;;;;;;;;;;;;;;5062799;28;20484;-79
2022/07/10 07:36:13;;;;;;;;;;;;;;;;;;5058973;28;19947;-78
2022/07/10 07:38:39;;;;;;;;;;;;;;;;;;5059623;28;19925;-79
2022/07/10 07:41:05;;;;;;;;;;;;;;;;;;5058786;28;20019;-79
2022/07/10 07:43:32;;;;;;;;;;;;;;;;;;5059082;28;19968;-79
2022/07/10 07:45:58;;;;;;;;;;;;;;;;;;5056047;28;19929;-76
2022/07/10 07:48:25;;;;;;;;;;;;;;;;;;5056297;28;19996;-77
2022/07/10 07:50:51;;;;;;;;;;;;;;;;;;5057730;28;19931;-78
2022/07/10 07:53:19;;;;;;;;;;;;;;;;;;5056127;28;20388;-77
2022/07/10 07:55:45;;;;;;;;;;;;;;;;;;5058463;28;19971;-77
2022/07/10 07:58:12;;;;;;;;;;;;;;;;;;5057330;28;19924;-78
2022/07/10 08:00:38;;;;;;;;;;;;;;;;;;5043234;28;20346;-77
2022/07/10 08:03:05;;;;;;;;;;;;;;;;;;5032517;28;19929;-77
2022/07/10 08:05:31;;;;;;;;;;;;;;;;;;5032123;28;19979;-78
2022/07/10 08:07:58;;;;;;;;;;;;;;;;;;5031554;28;20451;-77
2022/07/10 08:10:27;;;;;;;;;;;;;;;;;;5031958;28;19929;-77
2022/07/10 08:12:53;;;;;;;;;;;;;;;;;;5032114;28;19925;-77
2022/07/10 08:15:21;;;;;;;;;;;;;;;;;;5032163;28;19925;-77
2022/07/10 08:17:49;;;;;;;;;;;;;;;;;;5031838;28;19929;-78
2022/07/10 08:20:15;;;;;;;;;;;;;;;;;;5032267;28;19930;-78
2022/07/10 08:22:42;;;;;;;;;;;;;;;;;;5031982;28;20400;-78
2022/07/10 08:25:09;;;;;;;;;;;;;;;;;;5032825;28;19932;-78
2022/07/10 08:27:37;;;;;;;;;;;;;;;;;;5032748;28;20008;-78
2022/07/10 08:30:04;;;;;;;;;;;;;;;;;;5032228;28;20475;-77
2022/07/10 08:32:31;;;;;;;;;;;;;;;;;;5032162;28;19969;-77
2022/07/10 08:34:58;;;;;;;;;;;;;;;;;;5033363;28;19925;-78
2022/07/10 08:37:25;;;;;;;;;;;;;;;;;;5038081;28;20356;-78
2022/07/10 08:39:52;;;;;;;;;;;;;;;;;;5038394;28;19967;-79
2022/07/10 08:42:18;;;;;;;;;;;;;;;;;;5042055;28;19931;-78
2022/07/10 08:44:46;;;;;;;;;;;;;;;;;;5038682;28;19925;-79
2022/07/10 08:47:14;;;;;;;;;;;;;;;;;;5037779;28;19925;-77
2022/07/10 08:49:46;;;;;;;;;;;;;;;;;;5036746;28;19925;-78
2022/07/10 08:52:15;;;;;;;;;;;;;;;;;;5037732;28;19925;-78
2022/07/10 08:54:42;;;;;;;;;;;;;;;;;;5036503;28;19964;-77
2022/07/10 08:57:09;;;;;;;;;;;;;;;;;;5036355;28;19964;-77
2022/07/10 08:59:36;;;;;;;;;;;;;;;;;;5041716;28;19987;-79
2022/07/10 09:02:04;;;;;;;;;;;;;;;;;;5056195;28;20439;-77
2022/07/10 09:04:30;;;;;;;;;;;;;;;;;;5056124;28;19999;-77
2022/07/10 09:06:57;;;;;;;;;;;;;;;;;;5055770;28;20399;-78
2022/07/10 09:09:25;;;;;;;;;;;;;;;;;;5056002;28;19960;-78
2022/07/10 09:11:56;;;;;;;;;;;;;;;;;;5056235;28;19925;-77
2022/07/10 09:14:25;;;;;;;;;;;;;;;;;;5056222;28;19972;-78
2022/07/10 09:16:51;;;;;;;;;;;;;;;;;;5055322;28;19932;-77
2022/07/10 09:19:20;;;;;;;;;;;;;;;;;;5055284;28;20209;-78
2022/07/10 09:21:48;;;;;;;;;;;;;;;;;;5057039;28;20347;-77
2022/07/10 09:24:16;;;;;;;;;;;;;;;;;;5059999;28;19991;-78
2022/07/10 09:26:43;;;;;;;;;;;;;;;;;;5056511;28;20383;-77
2022/07/10 09:29:10;;;;;;;;;;;;;;;;;;5054970;28;19925;-79
2022/07/10 09:31:50;;;;;;;;;;;;;;;;;;5055070;28;19925;-78
2022/07/10 09:34:17;;;;;;;;;;;;;;;;;;5054747;28;19924;-78
2022/07/10 09:36:45;;;;;;;;;;;;;;;;;;5056398;28;19972;-77
2022/07/10 09:39:11;;;;;;;;;;;;;;;;;;5056979;28;19960;-77
2022/07/10 09:41:38;;;;;;;;;;;;;;;;;;5056864;28;19968;-79
2022/07/10 09:44:07;;;;;;;;;;;;;;;;;;5055917;28;19987;-78
2022/07/10 09:46:34;;;;;;;;;;;;;;;;;;5056605;28;19925;-78
2022/07/10 09:49:02;;;;;;;;;;;;;;;;;;5056541;28;19925;-78
2022/07/10 09:51:30;;;;;;;;;;;;;;;;;;5055851;28;19980;-78
2022/07/10 09:54:00;;;;;;;;;;;;;;;;;;5056496;28;19928;-78
2022/07/10 09:56:27;;;;;;;;;;;;;;;;;;5056704;28;19935;-79
2022/07/10 09:58:58;;;;;;;;;;;;;;;;;;5056936;28;20292;-78
2022/07/10 10:01:24;;;;;;;;;;;;;;;;;;5017593;28;19930;-79
2022/07/10 10:03:51;;;;;;;;;;;;;;;;;;5017517;28;19961;-78
2022/07/10 10:06:17;;;;;;;;;;;;;;;;;;5016224;28;20434;-78
2022/07/10 10:08:49;;;;;;;;;;;;;;;;;;5015636;28;20386;-77
2022/07/10 10:11:20;;;;;;;;;;;;;;;;;;5018727;28;20308;-79
2022/07/10 10:13:47;;;;;;;;;;;;;;;;;;5020305;28;19936;-78
2022/07/10 10:16:14;;;;;;;;;;;;;;;;;;5015162;28;20020;-78
2022/07/10 10:20:36;;;;;;;;;;;;;;;;;;5015909;28;19925;-77
2022/07/10 10:21:27;;;;;;;;;;;;;;;;;;5014911;28;19933;-77
2022/07/10 10:23:54;;;;;;;;;;;;;;;;;;5014932;28;19925;-78
2022/07/10 10:26:24;;;;;;;;;;;;;;;;;;5015304;28;20419;-77
2022/07/10 10:28:52;;;;;;;;;;;;;;;;;;5020419;28;19932;-82
2022/07/10 10:31:19;;;;;;;;;;;;;;;;;;5016096;28;19987;-77
2022/07/10 10:33:46;;;;;;;;;;;;;;;;;;5014557;28;20269;-77
2022/07/10 10:36:13;;;;;;;;;;;;;;;;;;5014612;28;19972;-78
2022/07/10 10:38:58;;;;;;;;;;;;;;;;;;5018896;28;19925;-78
2022/07/10 10:41:26;;;;;;;;;;;;;;;;;;5011926;28;19972;-80
2022/07/10 10:44:07;;;;;;;;;;;;;;;;;;5023230;28;20418;-80
2022/07/10 10:46:35;;;;;;;;;;;;;;;;;;5016042;28;20028;-78
2022/07/10 10:49:06;;;;;;;;;;;;;;;;;;5017918;28;19932;-78
2022/07/10 10:51:47;;;;;;;;;;;;;;;;;;5016333;28;19932;-77
2022/07/10 10:54:14;;;;;;;;;;;;;;;;;;5018089;28;19957;-77
2022/07/10 10:56:41;;;;;;;;;;;;;;;;;;5017441;28;19932;-77
2022/07/10 10:59:08;;;;;;;;;;;;;;;;;;5014612;28;20046;-77
2022/07/10 11:01:34;;;;;;;;;;;;;;;;;;5014032;28;19973;-76
2022/07/10 11:04:14;;;;;;;;;;;;;;;;;;5013992;28;19969;-77
2022/07/10 11:06:41;;;;;;;;;;;;;;;;;;5014172;28;19933;-77
2022/07/10 11:09:21;;;;;;;;;;;;;;;;;;5015127;28;19979;-78
2022/07/10 11:11:59;;;;;;;;;;;;;;;;;;5014714;28;20300;-77
2022/07/10 11:14:28;;;;;;;;;;;;;;;;;;5013955;28;19961;-77
2022/07/10 11:16:55;;;;;;;;;;;;;;;;;;5014091;28;19932;-79
2022/07/10 11:19:23;;;;;;;;;;;;;;;;;;5014422;28;20377;-79
2022/07/10 11:21:54;;;;;;;;;;;;;;;;;;5014075;28;19976;-78
2022/07/10 11:24:33;;;;;;;;;;;;;;;;;;5014416;28;19934;-78
2022/07/10 11:27:07;;;;;;;;;;;;;;;;;;5014289;28;19973;-78
2022/07/10 11:29:37;;;;;;;;;;;;;;;;;;5014126;28;19979;-79
2022/07/10 11:32:03;;;;;;;;;;;;;;;;;;5014896;28;19975;-78
2022/07/10 11:34:35;;;;;;;;;;;;;;;;;;5013641;28;20407;-78
2022/07/10 11:37:01;;;;;;;;;;;;;;;;;;5013811;28;20384;-78
2022/07/10 11:39:28;;;;;;;;;;;;;;;;;;5018342;28;19984;-78
2022/07/10 11:41:54;;;;;;;;;;;;;;;;;;5019670;28;20392;-77
2022/07/10 11:44:22;;;;;;;;;;;;;;;;;;5018929;28;19995;-76
2022/07/10 11:46:50;;;;;;;;;;;;;;;;;;5019071;28;19961;-78
2022/07/10 11:49:17;;;;;;;;;;;;;;;;;;5013394;28;19995;-78
2022/07/10 11:51:44;;;;;;;;;;;;;;;;;;5013347;28;20042;-78
2022/07/10 11:54:12;;;;;;;;;;;;;;;;;;5013063;28;19929;-78
2022/07/10 11:56:41;;;;;;;;;;;;;;;;;;5015138;28;19929;-79
2022/07/10 11:59:08;;;;;;;;;;;;;;;;;;5013940;28;19931;-77
2022/07/10 12:01:41;;;;;;;;;;;;;;;;;;5013902;28;19973;-78
2022/07/10 12:04:08;;;;;;;;;;;;;;;;;;5022374;28;19957;-77
2022/07/10 12:06:36;;;;;;;;;;;;;;;;;;5016171;28;20020;-79
2022/07/10 12:09:03;;;;;;;;;;;;;;;;;;5014045;28;20009;-77
2022/07/10 12:11:30;;;;;;;;;;;;;;;;;;5014117;28;20047;-77
2022/07/10 12:14:09;;;;;;;;;;;;;;;;;;5013400;28;19975;-78
2022/07/10 12:16:37;;;;;;;;;;;;;;;;;;5017674;28;19945;-76
2022/07/10 12:19:04;;;;;;;;;;;;;;;;;;5018329;28;20408;-77
2022/07/10 12:21:31;;;;;;;;;;;;;;;;;;5018175;28;20012;-78
2022/07/10 12:23:57;;;;;;;;;;;;;;;;;;5017971;28;19931;-78
2022/07/10 12:26:32;;;;;;;;;;;;;;;;;;5017960;28;20019;-77
2022/07/10 12:28:58;;;;;;;;;;;;;;;;;;5016797;28;20009;-80
2022/07/10 12:31:26;;;;;;;;;;;;;;;;;;5035257;28;19929;-78
2022/07/10 12:33:57;;;;;;;;;;;;;;;;;;5035397;28;20025;-78
2022/07/10 12:36:24;;;;;;;;;;;;;;;;;;5036266;28;19925;-77
2022/07/10 12:38:54;;;;;;;;;;;;;;;;;;5037012;28;19968;-78
2022/07/10 12:41:24;;;;;;;;;;;;;;;;;;5036242;28;19933;-78
2022/07/10 12:43:50;;;;;;;;;;;;;;;;;;5037593;28;19960;-76
2022/07/10 12:46:19;;;;;;;;;;;;;;;;;;5037425;28;19996;-77
2022/07/10 12:49:01;;;;;;;;;;;;;;;;;;5037309;28;19925;-77
2022/07/10 12:51:29;;;;;;;;;;;;;;;;;;5037572;28;19976;-78
2022/07/10 12:53:56;;;;;;;;;;;;;;;;;;5037189;28;19931;-77
2022/07/10 12:56:29;;;;;;;;;;;;;;;;;;5036904;28;20033;-77
2022/07/10 12:58:56;;;;;;;;;;;;;;;;;;5035836;28;20420;-78
2022/07/10 13:01:22;;;;;;;;;;;;;;;;;;5037696;28;19925;-77
2022/07/10 13:03:49;;;;;;;;;;;;;;;;;;5038711;28;19972;-78
2022/07/10 13:06:26;;;;;;;;;;;;;;;;;;5040155;28;19976;-77
2022/07/10 13:08:54;;;;;;;;;;;;;;;;;;5041474;28;19968;-77
2022/07/10 13:11:21;;;;;;;;;;;;;;;;;;5046630;28;19925;-77
2022/07/10 13:13:47;;;;;;;;;;;;;;;;;;5049690;28;19925;-78
2022/07/10 13:16:14;;;;;;;;;;;;;;;;;;5043386;28;19932;-77
2022/07/10 13:18:43;;;;;;;;;;;;;;;;;;5038803;28;20387;-77
2022/07/10 13:21:10;;;;;;;;;;;;;;;;;;5051692;28;20060;-78
2022/07/10 13:23:37;;;;;;;;;;;;;;;;;;5055022;28;19951;-79
2022/07/10 13:26:06;;;;;;;;;;;;;;;;;;5054994;28;20019;-76
2022/07/10 13:28:33;;;;;;;;;;;;;;;;;;5055005;28;19971;-76
2022/07/10 13:31:00;;;;;;;;;;;;;;;;;;5054917;28;19983;-77
2022/07/10 13:33:27;;;;;;;;;;;;;;;;;;5055681;28;20003;-78
2022/07/10 13:35:54;;;;;;;;;;;;;;;;;;5054745;28;19994;-78
2022/07/10 13:38:20;;;;;;;;;;;;;;;;;;5055269;28;20012;-77
2022/07/10 13:40:48;;;;;;;;;;;;;;;;;;5055467;28;19944;-77
2022/07/10 13:43:17;;;;;;;;;;;;;;;;;;5055951;28;19924;-78
2022/07/10 13:45:43;;;;;;;;;;;;;;;;;;5043037;28;19932;-78
2022/07/10 13:48:10;;;;;;;;;;;;;;;;;;5035066;28;19935;-76
2022/07/10 13:50:38;;;;;;;;;;;;;;;;;;5036850;28;19981;-76
2022/07/10 13:53:04;;;;;;;;;;;;;;;;;;5035443;28;19929;-78
2022/07/10 13:55:31;;;;;;;;;;;;;;;;;;5035112;28;20012;-77
2022/07/10 13:57:58;;;;;;;;;;;;;;;;;;5035364;28;19975;-79
2022/07/10 14:00:25;;;;;;;;;;;;;;;;;;5040718;28;19959;-76
2022/07/10 14:02:55;;;;;;;;;;;;;;;;;;5040415;28;19972;-78
2022/07/10 14:05:21;;;;;;;;;;;;;;;;;;5039321;28;20008;-77
2022/07/10 14:07:48;;;;;;;;;;;;;;;;;;5034517;28;19976;-79
2022/07/10 14:10:15;;;;;;;;;;;;;;;;;;5034628;28;20019;-78
2022/07/10 14:12:41;;;;;;;;;;;;;;;;;;5034965;28;19932;-77
2022/07/10 14:15:08;;;;;;;;;;;;;;;;;;5035560;28;20008;-77
2022/07/10 14:17:36;;;;;;;;;;;;;;;;;;5035482;28;19971;-78
2022/07/10 14:20:03;;;;;;;;;;;;;;;;;;5035643;28;20012;-79
2022/07/10 14:22:31;;;;;;;;;;;;;;;;;;5034514;28;21394;-79
2022/07/10 14:25:00;;;;;;;;;;;;;;;;;;5035607;28;19925;-77
2022/07/10 14:27:27;;;;;;;;;;;;;;;;;;5034908;28;19976;-79
2022/07/10 14:29:54;;;;;;;;;;;;;;;;;;5035086;28;20396;-80
2022/07/10 14:32:20;;;;;;;;;;;;;;;;;;5035356;28;20473;-79
2022/07/10 14:34:48;;;;;;;;;;;;;;;;;;5035469;28;19983;-82
2022/07/10 14:37:15;;;;;;;;;;;;;;;;;;5034231;28;20096;-77
2022/07/10 14:39:42;;;;;;;;;;;;;;;;;;5035298;28;20020;-79
2022/07/10 14:42:09;;;;;;;;;;;;;;;;;;5033727;28;20056;-79
2022/07/10 14:44:35;;;;;;;;;;;;;;;;;;5035199;28;19933;-77
2022/07/10 14:47:02;;;;;;;;;;;;;;;;;;5036671;28;20019;-77
2022/07/10 14:49:28;;;;;;;;;;;;;;;;;;5035033;28;20032;-78
2022/07/10 14:51:58;;;;;;;;;;;;;;;;;;5033407;28;19987;-79
2022/07/10 14:54:25;;;;;;;;;;;;;;;;;;5033415;28;20027;-79
2022/07/10 14:56:52;;;;;;;;;;;;;;;;;;5033531;28;19929;-79
2022/07/10 14:59:18;;;;;;;;;;;;;;;;;;5033470;28;19973;-79
2022/07/10 15:01:45;;;;;;;;;;;;;;;;;;5033617;28;19971;-79
2022/07/10 15:04:11;;;;;;;;;;;;;;;;;;5033546;28;19925;-80
2022/07/10 15:06:38;;;;;;;;;;;;;;;;;;5033466;28;20016;-79
2022/07/10 15:09:06;;;;;;;;;;;;;;;;;;5033130;28;20012;-79
2022/07/10 15:11:33;;;;;;;;;;;;;;;;;;5033957;28;19925;-78
2022/07/10 15:14:00;;;;;;;;;;;;;;;;;;5033440;28;19929;-77
2022/07/10 15:16:27;;;;;;;;;;;;;;;;;;5033490;28;19954;-79
2022/07/10 15:18:54;;;;;;;;;;;;;;;;;;5033686;28;19976;-79
2022/07/10 15:21:20;;;;;;;;;;;;;;;;;;5037572;28;20695;-77
2022/07/10 15:23:47;;;;;;;;;;;;;;;;;;5039939;28;19976;-78
2022/07/10 15:26:17;;;;;;;;;;;;;;;;;;5038992;28;19925;-78
2022/07/10 15:28:43;;;;;;;;;;;;;;;;;;5040600;28;19925;-77
2022/07/10 15:31:10;;;;;;;;;;;;;;;;;;5039463;28;20006;-78
2022/07/10 15:33:37;;;;;;;;;;;;;;;;;;5039473;28;19936;-78
2022/07/10 15:36:04;;;;;;;;;;;;;;;;;;5039327;28;19925;-78
2022/07/10 15:38:31;;;;;;;;;;;;;;;;;;5036949;28;19976;-79
2022/07/10 15:40:58;;;;;;;;;;;;;;;;;;5034821;28;19925;-79
2022/07/10 15:43:28;;;;;;;;;;;;;;;;;;5045900;22;19929;-79
2022/07/10 15:45:55;;;;;;;;;;;;;;;;;;5058129;28;19924;-79
2022/07/10 15:48:22;;;;;;;;;;;;;;;;;;5059197;28;19933;-77
2022/07/10 15:50:48;;;;;;;;;;;;;;;;;;5060831;28;19975;-78
2022/07/10 15:53:15;;;;;;;;;;;;;;;;;;5056358;28;19929;-78
2022/07/10 15:55:41;;;;;;;;;;;;;;;;;;5053169;28;19924;-78
2022/07/10 15:58:08;;;;;;;;;;;;;;;;;;5053580;28;20015;-78
2022/07/10 16:00:35;;;;;;;;;;;;;;;;;;5040071;28;19932;-78
2022/07/10 16:03:02;;;;;;;;;;;;;;;;;;5033218;28;19972;-78
2022/07/10 16:05:28;;;;;;;;;;;;;;;;;;5033490;28;19929;-79
2022/07/10 16:07:55;;;;;;;;;;;;;;;;;;5033528;28;19925;-78
2022/07/10 16:10:21;;;;;;;;;;;;;;;;;;5033725;28;19948;-78
2022/07/10 16:12:48;;;;;;;;;;;;;;;;;;5033790;28;19925;-78
2022/07/10 16:15:15;;;;;;;;;;;;;;;;;;5033485;28;19975;-78
2022/07/10 16:17:44;;;;;;;;;;;;;;;;;;5033007;28;19972;-78
2022/07/10 16:20:12;;;;;;;;;;;;;;;;;;5033533;28;19926;-78
2022/07/10 16:22:38;;;;;;;;;;;;;;;;;;5033661;28;19932;-78
2022/07/10 16:27:49;;;;;;;;;;;;;;;;;;5033809;28;19948;-79
2022/07/10 16:30:16;;;;;;;;;;;;;;;;;;5033277;28;19929;-78
2022/07/10 16:32:43;;;;;;;;;;;;;;;;;;5033892;28;19971;-78
2022/07/10 16:35:10;;;;;;;;;;;;;;;;;;5034152;28;19976;-78
2022/07/10 16:37:36;;;;;;;;;;;;;;;;;;5033485;28;20015;-78
2022/07/10 16:40:03;;;;;;;;;;;;;;;;;;5033175;28;19973;-79
2022/07/10 16:42:30;;;;;;;;;;;;;;;;;;5033595;28;19948;-78
2022/07/10 16:44:57;;;;;;;;;;;;;;;;;;5033752;28;19929;-78
2022/07/10 16:47:24;;;;;;;;;;;;;;;;;;5033596;28;20399;-79
2022/07/10 16:49:52;;;;;;;;;;;;;;;;;;5033383;28;19947;-79
2022/07/10 16:52:18;;;;;;;;;;;;;;;;;;5034000;28;19947;-78
2022/07/10 16:54:45;;;;;;;;;;;;;;;;;;5043219;28;20033;-79
2022/07/10 16:57:12;;;;;;;;;;;;;;;;;;5056431;28;19940;-78
2022/07/10 16:59:38;;;;;;;;;;;;;;;;;;5046866;28;19925;-79
2022/07/10 17:02:05;;;;;;;;;;;;;;;;;;5040512;28;20015;-79